createdAt,value
2022-09-03T00:02:39.287Z,101558.00
2022-09-03T00:05:27.050Z,101554.00
2022-09-03T00:08:03.819Z,101560.00
2022-09-03T00:10:49.941Z,101560.00
2022-09-03T00:13:22.945Z,101556.00
2022-09-03T00:15:51.849Z,101554.00
2022-09-03T00:18:23.075Z,101549.00
2022-09-03T00:21:08.604Z,101552.00
2022-09-03T00:23:38.996Z,101554.00
2022-09-03T00:26:11.435Z,101551.00
2022-09-03T00:29:03.752Z,101558.00
2022-09-03T00:31:37.597Z,101555.00
2022-09-03T00:34:10.069Z,101551.00
2022-09-03T00:36:42.637Z,101557.00
2022-09-03T00:39:11.488Z,101549.00
2022-09-03T00:42:15.528Z,101554.00
2022-09-03T00:44:58.291Z,101558.00
2022-09-03T00:47:34.968Z,101550.00
2022-09-03T00:50:19.277Z,101553.00
2022-09-03T00:53:00.437Z,101548.00
2022-09-03T00:55:39.169Z,101549.00
2022-09-03T00:58:20.618Z,101543.00
2022-09-03T01:00:47.278Z,101540.00
2022-09-03T01:03:34.482Z,101544.00
2022-09-03T01:06:13.151Z,101541.00
2022-09-03T01:09:00.079Z,101541.00
2022-09-03T01:11:45.371Z,101534.00
2022-09-03T01:14:48.272Z,101538.00
2022-09-03T01:17:26.891Z,101534.00
2022-09-03T01:20:02.891Z,101536.00
2022-09-03T01:23:17.073Z,101533.00
2022-09-03T01:25:54.787Z,101532.00
2022-09-03T01:28:21.093Z,101530.00
2022-09-03T01:31:09.199Z,101531.00
2022-09-03T01:33:44.270Z,101528.00
2022-09-03T01:36:23.987Z,101527.00
2022-09-03T01:39:03.107Z,101518.00
2022-09-03T01:42:03.426Z,101526.00
2022-09-03T01:44:52.801Z,101531.00
2022-09-03T01:47:50.307Z,101520.00
2022-09-03T01:50:44.329Z,101516.00
2022-09-03T01:53:27.450Z,101519.00
2022-09-03T01:56:11.554Z,101518.00
2022-09-03T01:58:44.241Z,101517.00
2022-09-03T02:01:20.684Z,101524.00
2022-09-03T02:03:48.261Z,101518.00
2022-09-03T02:06:15.713Z,101524.00
2022-09-03T02:08:42.165Z,101523.00
2022-09-03T02:11:10.326Z,101515.00
2022-09-03T02:13:48.315Z,101523.00
2022-09-03T02:16:16.667Z,101529.00
2022-09-03T02:18:46.728Z,101531.00
2022-09-03T02:21:16.567Z,101533.00
2022-09-03T02:23:43.315Z,101537.00
2022-09-03T02:26:12.831Z,101535.00
2022-09-03T02:28:39.303Z,101533.00
2022-09-03T02:31:06.062Z,101534.00
2022-09-03T02:33:37.855Z,101533.00
2022-09-03T02:36:06.792Z,101540.00
2022-09-03T02:38:33.418Z,101535.00
2022-09-03T02:41:00.017Z,101528.00
2022-09-03T02:43:46.527Z,101527.00
2022-09-03T02:46:21.217Z,101533.00
2022-09-03T02:48:47.861Z,101527.00
2022-09-03T02:51:14.661Z,101530.00
2022-09-03T02:53:42.068Z,101520.00
2022-09-03T02:56:08.529Z,101529.00
2022-09-03T02:58:35.114Z,101524.00
2022-09-03T03:01:01.619Z,101525.00
2022-09-03T03:03:28.307Z,101530.00
2022-09-03T03:05:57.310Z,101526.00
2022-09-03T03:08:31.250Z,101532.00
2022-09-03T03:10:58.664Z,101523.00
2022-09-03T03:13:26.322Z,101526.00
2022-09-03T03:15:56.685Z,101519.00
2022-09-03T03:18:23.234Z,101519.00
2022-09-03T03:20:49.743Z,101527.00
2022-09-03T03:23:16.555Z,101526.00
2022-09-03T03:25:43.247Z,101528.00
2022-09-03T03:28:09.839Z,101526.00
2022-09-03T03:30:40.261Z,101533.00
2022-09-03T03:33:07.380Z,101533.00
2022-09-03T03:35:34.086Z,101532.00
2022-09-03T03:38:00.969Z,101543.00
2022-09-03T03:40:27.530Z,101537.00
2022-09-03T03:42:54.794Z,101530.00
2022-09-03T03:45:21.316Z,101538.00
2022-09-03T03:47:47.921Z,101533.00
2022-09-03T03:50:14.407Z,101543.00
2022-09-03T03:52:40.866Z,101541.00
2022-09-03T03:55:07.792Z,101539.00
2022-09-03T03:57:34.291Z,101543.00
2022-09-03T04:00:00.896Z,101534.00
2022-09-03T04:02:27.441Z,101539.00
2022-09-03T04:04:53.985Z,101536.00
2022-09-03T04:07:20.559Z,101540.00
2022-09-03T04:09:49.352Z,101542.00
2022-09-03T04:12:17.801Z,101543.00
2022-09-03T04:14:44.260Z,101547.00
2022-09-03T04:17:10.757Z,101547.00
2022-09-03T04:19:38.456Z,101539.00
2022-09-03T04:22:04.911Z,101541.00
2022-09-03T04:24:32.219Z,101532.00
2022-09-03T04:26:58.733Z,101531.00
2022-09-03T04:29:25.658Z,101539.00
2022-09-03T04:32:10.645Z,101534.00
2022-09-03T04:34:37.095Z,101533.00
2022-09-03T04:37:03.553Z,101531.00
2022-09-03T04:39:30.108Z,101529.00
2022-09-03T04:41:57.650Z,101529.00
2022-09-03T04:44:25.350Z,101529.00
2022-09-03T04:46:53.235Z,101531.00
2022-09-03T04:49:20.602Z,101532.00
2022-09-03T04:51:47.103Z,101530.00
2022-09-03T04:54:13.570Z,101534.00
2022-09-03T04:56:40.430Z,101533.00
2022-09-03T04:59:09.367Z,101532.00
2022-09-03T05:01:38.381Z,101541.00
2022-09-03T05:04:06.158Z,101534.00
2022-09-03T05:06:34.000Z,101541.00
2022-09-03T05:09:00.958Z,101542.00
2022-09-03T05:11:28.449Z,101542.00
2022-09-03T05:13:58.016Z,101539.00
2022-09-03T05:16:25.953Z,101543.00
2022-09-03T05:18:54.110Z,101541.00
2022-09-03T05:21:21.355Z,101539.00
2022-09-03T05:23:50.617Z,101536.00
2022-09-03T05:26:20.097Z,101538.00
2022-09-03T05:28:47.116Z,101538.00
2022-09-03T05:31:18.906Z,101542.00
2022-09-03T05:33:50.901Z,101536.00
2022-09-03T05:36:20.662Z,101532.00
2022-09-03T05:38:50.158Z,101538.00
2022-09-03T05:41:19.062Z,101541.00
2022-09-03T05:43:51.874Z,101537.00
2022-09-03T05:46:18.543Z,101543.00
2022-09-03T05:48:45.340Z,101541.00
2022-09-03T05:51:17.685Z,101537.00
2022-09-03T05:53:46.298Z,101537.00
2022-09-03T05:56:17.763Z,101539.00
2022-09-03T05:58:45.295Z,101535.00
2022-09-03T06:01:20.735Z,101544.00
2022-09-03T06:03:53.571Z,101540.00
2022-09-03T06:06:25.538Z,101537.00
2022-09-03T06:08:57.052Z,101540.00
2022-09-03T06:11:26.808Z,101533.00
2022-09-03T06:13:53.959Z,101533.00
2022-09-03T06:16:29.089Z,101532.00
2022-09-03T06:18:59.890Z,101457.00
2022-09-03T06:21:26.570Z,101170.00
2022-09-03T06:23:59.629Z,100866.00
2022-09-03T06:26:28.538Z,100836.00
2022-09-03T06:28:56.241Z,100859.00
2022-09-03T06:31:23.475Z,100882.00
2022-09-03T06:33:50.003Z,101142.00
2022-09-03T06:36:18.369Z,101267.00
2022-09-03T06:38:46.039Z,100873.00
2022-09-03T06:41:26.189Z,100910.00
2022-09-03T06:44:04.268Z,101073.00
2022-09-03T06:46:33.299Z,100889.00
2022-09-03T06:49:00.347Z,101510.00
2022-09-03T06:51:28.656Z,101544.00
2022-09-03T06:54:00.846Z,101523.00
2022-09-03T06:56:27.330Z,101529.00
2022-09-03T06:58:58.196Z,101540.00
2022-09-03T07:01:25.999Z,101538.00
2022-09-03T07:03:56.380Z,101564.00
2022-09-03T07:06:24.976Z,101567.00
2022-09-03T07:08:51.414Z,101569.00
2022-09-03T07:11:20.265Z,101570.00
2022-09-03T07:13:48.887Z,101567.00
2022-09-03T07:16:23.919Z,101560.00
2022-09-03T07:18:51.406Z,101557.00
2022-09-03T07:21:23.576Z,101554.00
2022-09-03T07:23:52.500Z,101550.00
2022-09-03T07:26:23.085Z,101560.00
2022-09-03T07:28:50.842Z,101558.00
2022-09-03T07:31:26.113Z,101560.00
2022-09-03T07:34:00.024Z,101562.00
2022-09-03T07:36:29.485Z,101560.00
2022-09-03T07:39:02.016Z,101562.00
2022-09-03T07:41:29.106Z,101568.00
2022-09-03T07:43:56.993Z,101554.00
2022-09-03T07:46:26.894Z,101564.00
2022-09-03T07:48:56.063Z,101560.00
2022-09-03T07:51:26.584Z,101554.00
2022-09-03T07:53:56.304Z,101561.00
2022-09-03T07:56:23.127Z,101572.00
2022-09-03T07:58:49.797Z,101550.00
2022-09-03T08:01:18.797Z,101573.00
2022-09-03T08:03:47.466Z,101584.00
2022-09-03T08:06:15.821Z,101566.00
2022-09-03T08:08:45.099Z,101536.00
2022-09-03T08:11:17.324Z,101569.00
2022-09-03T08:13:46.307Z,101570.00
2022-09-03T08:16:14.166Z,101536.00
2022-09-03T08:18:40.646Z,101574.00
2022-09-03T08:21:09.536Z,101569.00
2022-09-03T08:23:40.440Z,101572.00
2022-09-03T08:26:07.755Z,101559.00
2022-09-03T08:28:35.546Z,101564.00
2022-09-03T08:31:13.249Z,101569.00
2022-09-03T08:33:43.194Z,101574.00
2022-09-03T08:36:15.389Z,101568.00
2022-09-03T08:38:43.966Z,101571.00
2022-09-03T08:41:14.750Z,101568.00
2022-09-03T08:43:47.055Z,101560.00
2022-09-03T08:46:13.665Z,101550.00
2022-09-03T08:48:40.230Z,101540.00
2022-09-03T08:51:08.618Z,101539.00
2022-09-03T08:53:57.394Z,101544.00
2022-09-03T08:56:33.030Z,101554.00
2022-09-03T08:59:01.495Z,101543.00
2022-09-03T09:01:42.895Z,101541.00
2022-09-03T09:04:30.783Z,101544.00
2022-09-03T09:07:27.806Z,101535.00
2022-09-03T09:10:10.104Z,101541.00
2022-09-03T09:13:02.632Z,101542.00
2022-09-03T09:15:31.995Z,101541.00
2022-09-03T09:18:15.152Z,101545.00
2022-09-03T09:20:50.639Z,101536.00
2022-09-03T09:23:46.012Z,101528.00
2022-09-03T09:26:14.783Z,101527.00
2022-09-03T09:28:43.343Z,101517.00
2022-09-03T09:31:15.556Z,101526.00
2022-09-03T09:33:42.561Z,101522.00
2022-09-03T09:36:13.416Z,101510.00
2022-09-03T09:38:40.182Z,101518.00
2022-09-03T09:41:22.085Z,101522.00
2022-09-03T09:44:05.281Z,101512.00
2022-09-03T09:46:41.160Z,101513.00
2022-09-03T09:49:32.097Z,101509.00
2022-09-03T09:52:25.591Z,101508.00
2022-09-03T09:54:54.833Z,101511.00
2022-09-03T09:57:25.662Z,101504.00
2022-09-03T10:00:13.271Z,101503.00
2022-09-03T10:02:52.130Z,101504.00
2022-09-03T10:05:25.643Z,101503.00
2022-09-03T10:08:01.081Z,101503.00
2022-09-03T10:10:29.151Z,101496.00
2022-09-03T10:13:01.740Z,101489.00
2022-09-03T10:15:40.754Z,101498.00
2022-09-03T10:18:15.966Z,101494.00
2022-09-03T10:21:04.451Z,101502.00
2022-09-03T10:23:41.024Z,101499.00
2022-09-03T10:26:17.111Z,101500.00
2022-09-03T10:28:51.208Z,101496.00
2022-09-03T10:31:31.630Z,101497.00
2022-09-03T10:34:24.557Z,101490.00
2022-09-03T10:37:10.175Z,101492.00
2022-09-03T10:40:01.617Z,101484.00
2022-09-03T10:42:46.663Z,101489.00
2022-09-03T10:45:21.454Z,101483.00
2022-09-03T10:48:12.806Z,101478.00
2022-09-03T10:50:56.806Z,101467.00
2022-09-03T10:53:37.510Z,101458.00
2022-09-03T10:56:13.666Z,101494.00
2022-09-03T10:58:56.481Z,101485.00
2022-09-03T11:02:04.901Z,101446.00
2022-09-03T11:05:02.992Z,101476.00
2022-09-03T11:07:47.966Z,101484.00
2022-09-03T11:10:34.769Z,101490.00
2022-09-03T11:13:11.326Z,101476.00
2022-09-03T11:16:18.212Z,101475.00
2022-09-03T11:18:49.907Z,101480.00
2022-09-03T11:21:25.789Z,101479.00
2022-09-03T11:24:09.613Z,101472.00
2022-09-03T11:26:36.517Z,101447.00
2022-09-03T11:29:41.868Z,101467.00
2022-09-03T11:32:17.895Z,101466.00
2022-09-03T11:34:55.279Z,101463.00
2022-09-03T11:37:29.200Z,101464.00
2022-09-03T11:40:13.421Z,101463.00
2022-09-03T11:42:42.720Z,101454.00
2022-09-03T11:45:30.850Z,101412.00
2022-09-03T11:47:57.509Z,101430.00
2022-09-03T11:50:33.164Z,101448.00
2022-09-03T11:53:25.562Z,101430.00
2022-09-03T11:55:59.502Z,101448.00
2022-09-03T11:58:34.571Z,101454.00
2022-09-03T12:01:10.429Z,101415.00
2022-09-03T12:03:52.883Z,101429.00
2022-09-03T12:06:45.958Z,101433.00
2022-09-03T12:09:46.089Z,101430.00
2022-09-03T12:12:31.442Z,101445.00
2022-09-03T12:15:25.813Z,101435.00
2022-09-03T12:18:17.503Z,101436.00
2022-09-03T12:20:44.148Z,101424.00
2022-09-03T12:23:25.470Z,101431.00
2022-09-03T12:25:53.105Z,101432.00
2022-09-03T12:28:25.648Z,101429.00
2022-09-03T12:30:54.015Z,101436.00
2022-09-03T12:33:22.904Z,101428.00
2022-09-03T12:36:00.993Z,101427.00
2022-09-03T12:38:30.660Z,101427.00
2022-09-03T12:43:51.830Z,101416.00
2022-09-03T12:46:18.721Z,101407.00
2022-09-03T12:52:06.817Z,101367.00
2022-09-03T12:54:35.909Z,101383.00
2022-09-03T12:57:03.291Z,101396.00
2022-09-03T12:59:36.506Z,101398.00
2022-09-03T13:02:14.356Z,101394.00
2022-09-03T13:04:42.106Z,101392.00
2022-09-03T13:07:22.081Z,101393.00
2022-09-03T13:09:49.413Z,101347.00
2022-09-03T13:19:58.081Z,101376.00
2022-09-03T13:22:27.540Z,101378.00
2022-09-03T13:25:16.785Z,101382.00
2022-09-03T13:27:55.293Z,101371.00
2022-09-03T13:30:31.082Z,101379.00
2022-09-03T13:33:01.054Z,101379.00
2022-09-03T13:36:02.144Z,101378.00
2022-09-03T13:38:46.361Z,101375.00
2022-09-03T13:41:21.073Z,101375.00
2022-09-03T13:44:16.166Z,101352.00
2022-09-03T13:46:51.214Z,101375.00
2022-09-03T13:49:59.010Z,101347.00
2022-09-03T13:52:35.397Z,101355.00
2022-09-03T13:55:19.630Z,101380.00
2022-09-03T13:58:30.467Z,101328.00
2022-09-03T14:00:59.070Z,101363.00
2022-09-03T14:04:11.412Z,101331.00
2022-09-03T14:07:14.562Z,101366.00
2022-09-03T14:10:05.750Z,101371.00
2022-09-03T14:12:47.427Z,101365.00
2022-09-03T14:15:34.183Z,101371.00
2022-09-03T14:18:36.185Z,101366.00
2022-09-03T14:21:21.360Z,101328.00
2022-09-03T14:23:48.831Z,101326.00
2022-09-03T14:26:38.140Z,101334.00
2022-09-03T14:29:15.935Z,101358.00
2022-09-03T14:32:18.361Z,101344.00
2022-09-03T14:35:13.739Z,101315.00
2022-09-03T14:38:00.376Z,101349.00
2022-09-03T14:40:41.241Z,101318.00
2022-09-03T14:43:38.611Z,101347.00
2022-09-03T14:46:43.699Z,101345.00
2022-09-03T14:49:15.997Z,101310.00
2022-09-03T14:52:08.170Z,101337.00
2022-09-03T14:54:56.335Z,101338.00
2022-09-03T14:57:34.712Z,101343.00
2022-09-03T15:00:26.226Z,101350.00
2022-09-03T15:02:53.278Z,101349.00
2022-09-03T15:05:52.035Z,101343.00
2022-09-03T15:08:48.087Z,101317.00
2022-09-03T15:11:22.720Z,101304.00
2022-09-03T15:14:05.742Z,101336.00
2022-09-03T15:16:47.941Z,101311.00
2022-09-03T15:19:42.979Z,101324.00
2022-09-03T15:22:50.056Z,101308.00
2022-09-03T15:25:28.054Z,101332.00
2022-09-03T15:28:34.130Z,101338.00
2022-09-03T15:31:14.208Z,101335.00
2022-09-03T15:33:54.898Z,101306.00
2022-09-03T15:36:48.742Z,101332.00
2022-09-03T15:39:23.228Z,101333.00
2022-09-03T15:41:57.394Z,101334.00
2022-09-03T15:44:34.672Z,101324.00
2022-09-03T15:47:05.316Z,101336.00
2022-09-03T15:50:02.419Z,101318.00
2022-09-03T15:52:37.662Z,101311.00
2022-09-03T15:55:22.991Z,101312.00
2022-09-03T15:58:12.543Z,101317.00
2022-09-03T16:00:52.911Z,101322.00
2022-09-03T16:03:32.340Z,101346.00
2022-09-03T16:06:04.814Z,101325.00
2022-09-03T16:08:49.604Z,101345.00
2022-09-03T16:11:21.574Z,101356.00
2022-09-03T16:14:06.216Z,101348.00
2022-09-03T16:16:47.636Z,101351.00
2022-09-03T16:19:28.820Z,101347.00
2022-09-03T16:21:58.096Z,101345.00
2022-09-03T16:24:51.211Z,101338.00
2022-09-03T16:27:23.285Z,101345.00
2022-09-03T16:30:11.195Z,101330.00
2022-09-03T16:33:19.800Z,101346.00
2022-09-03T16:36:11.364Z,101338.00
2022-09-03T16:38:57.988Z,101356.00
2022-09-03T16:41:49.631Z,101345.00
2022-09-03T16:44:45.897Z,101343.00
2022-09-03T16:47:46.206Z,101345.00
2022-09-03T16:50:36.690Z,101342.00
2022-09-03T16:53:29.106Z,101347.00
2022-09-03T16:56:25.828Z,101348.00
2022-09-03T16:59:23.236Z,101348.00
2022-09-03T17:02:40.591Z,101350.00
2022-09-03T17:05:27.149Z,101344.00
2022-09-03T17:08:05.984Z,101343.00
2022-09-03T17:11:08.514Z,101349.00
2022-09-03T17:13:57.692Z,101351.00
2022-09-03T17:16:52.679Z,101348.00
2022-09-03T17:19:31.914Z,101341.00
2022-09-03T17:22:17.647Z,101346.00
2022-09-03T17:24:56.673Z,101363.00
2022-09-03T17:27:49.268Z,101361.00
2022-09-03T17:30:26.255Z,101359.00
2022-09-03T17:33:04.519Z,101352.00
2022-09-03T17:35:38.363Z,101352.00
2022-09-03T17:38:19.056Z,101356.00
2022-09-03T17:41:23.195Z,101355.00
2022-09-03T17:44:02.223Z,101355.00
2022-09-03T17:46:45.940Z,101365.00
2022-09-03T17:49:23.281Z,101368.00
2022-09-03T17:51:59.341Z,101360.00
2022-09-03T17:54:42.563Z,101368.00
2022-09-03T17:57:30.921Z,101372.00
2022-09-03T18:00:10.829Z,101371.00
2022-09-03T18:03:02.231Z,101376.00
2022-09-03T18:05:50.653Z,101378.00
2022-09-03T18:08:40.728Z,101385.00
2022-09-03T18:11:14.440Z,101386.00
2022-09-03T18:13:48.233Z,101381.00
2022-09-03T18:16:29.547Z,101396.00
2022-09-03T18:19:29.196Z,101392.00
2022-09-03T18:22:18.379Z,101399.00
2022-09-03T18:25:16.965Z,101396.00
2022-09-03T18:28:06.342Z,101401.00
2022-09-03T18:30:52.764Z,101403.00
2022-09-03T18:33:43.402Z,101403.00
2022-09-03T18:36:29.844Z,101397.00
2022-09-03T18:39:30.957Z,101404.00
2022-09-03T18:43:04.637Z,101410.00
2022-09-03T18:46:45.937Z,101411.00
2022-09-03T18:49:15.880Z,101407.00
2022-09-03T18:52:14.311Z,101411.00
2022-09-03T18:55:28.288Z,101405.00
2022-09-03T18:58:40.077Z,101412.00
2022-09-03T19:01:57.346Z,101416.00
2022-09-03T19:05:05.713Z,101413.00
2022-09-03T19:08:18.792Z,101417.00
2022-09-03T19:11:15.258Z,101413.00
2022-09-03T19:14:01.183Z,101413.00
2022-09-03T19:17:24.689Z,101420.00
2022-09-03T19:20:27.307Z,101411.00
2022-09-03T19:23:12.219Z,101408.00
2022-09-03T19:25:57.216Z,101424.00
2022-09-03T19:28:48.825Z,101424.00
2022-09-03T19:31:34.044Z,101431.00
2022-09-03T19:34:44.428Z,101424.00
2022-09-03T19:37:38.933Z,101426.00
2022-09-03T19:40:53.618Z,101426.00
2022-09-03T19:43:47.697Z,101426.00
2022-09-03T19:46:49.217Z,101427.00
2022-09-03T19:49:50.299Z,101427.00
2022-09-03T19:53:09.320Z,101435.00
2022-09-03T19:56:02.829Z,101425.00
2022-09-03T19:58:54.428Z,101430.00
2022-09-03T20:01:43.767Z,101433.00
2022-09-03T20:04:34.094Z,101439.00
2022-09-03T20:07:21.592Z,101435.00
2022-09-03T20:10:10.439Z,101445.00
2022-09-03T20:12:43.084Z,101450.00
2022-09-03T20:15:09.902Z,101452.00
2022-09-03T20:18:02.549Z,101455.00
2022-09-03T20:20:49.132Z,101456.00
2022-09-03T20:23:23.858Z,101456.00
2022-09-03T20:26:17.468Z,101451.00
2022-09-03T20:29:00.128Z,101451.00
2022-09-03T20:31:58.771Z,101457.00
2022-09-03T20:34:40.101Z,101456.00
2022-09-03T20:37:27.912Z,101455.00
2022-09-03T20:40:14.842Z,101460.00
2022-09-03T20:43:33.259Z,101453.00
2022-09-03T20:46:28.876Z,101455.00
2022-09-03T20:49:08.476Z,101471.00
2022-09-03T20:51:53.206Z,101458.00
2022-09-03T20:54:32.521Z,101458.00
2022-09-03T20:57:05.674Z,101470.00
2022-09-03T20:59:51.100Z,101465.00
2022-09-03T21:03:09.064Z,101469.00
2022-09-03T21:05:56.008Z,101467.00
2022-09-03T21:08:59.424Z,101468.00
2022-09-03T21:11:41.635Z,101467.00
2022-09-03T21:14:22.091Z,101468.00
2022-09-03T21:17:25.876Z,101467.00
2022-09-03T21:20:10.999Z,101464.00
2022-09-03T21:22:52.713Z,101461.00
2022-09-03T21:25:28.381Z,101460.00
2022-09-03T21:28:01.265Z,101471.00
2022-09-03T21:30:30.128Z,101469.00
2022-09-03T21:33:02.720Z,101467.00
2022-09-03T21:35:44.808Z,101473.00
2022-09-03T21:38:17.460Z,101477.00
2022-09-03T21:40:55.345Z,101475.00
2022-09-03T21:43:32.267Z,101480.00
2022-09-03T21:46:15.298Z,101486.00
2022-09-03T21:48:58.640Z,101488.00
2022-09-03T21:51:33.544Z,101486.00
2022-09-03T21:54:31.191Z,101487.00
2022-09-03T21:57:22.308Z,101486.00
2022-09-03T22:00:32.404Z,101484.00
2022-09-03T22:03:00.322Z,101490.00
2022-09-03T22:05:44.032Z,101489.00
2022-09-03T22:08:22.708Z,101495.00
2022-09-03T22:11:04.569Z,101491.00
2022-09-03T22:13:52.389Z,101482.00
2022-09-03T22:16:25.118Z,101492.00
2022-09-03T22:18:52.399Z,101491.00
2022-09-03T22:21:44.561Z,101503.00
2022-09-03T22:24:31.179Z,101497.00
2022-09-03T22:27:03.157Z,101495.00
2022-09-03T22:29:46.252Z,101500.00
2022-09-03T22:32:40.590Z,101499.00
2022-09-03T22:35:28.852Z,101497.00
2022-09-03T22:38:14.063Z,101504.00
2022-09-03T22:40:52.430Z,101509.00
2022-09-03T22:43:31.372Z,101505.00
2022-09-03T22:46:11.758Z,101513.00
2022-09-03T22:49:02.112Z,101504.00
2022-09-03T22:51:35.256Z,101510.00
2022-09-03T22:54:16.891Z,101518.00
2022-09-03T22:56:43.950Z,101513.00
2022-09-03T22:59:25.069Z,101516.00
2022-09-03T23:02:10.398Z,101516.00
2022-09-03T23:04:44.985Z,101518.00
2022-09-03T23:07:39.395Z,101522.00
2022-09-03T23:10:11.184Z,101525.00
2022-09-03T23:12:44.961Z,101522.00
2022-09-03T23:15:30.191Z,101524.00
2022-09-03T23:18:19.587Z,101518.00
2022-09-03T23:21:11.682Z,101529.00
2022-09-03T23:23:44.086Z,101522.00
2022-09-03T23:26:27.014Z,101523.00
2022-09-03T23:29:02.848Z,101525.00
2022-09-03T23:31:29.325Z,101530.00
2022-09-03T23:33:56.085Z,101531.00
2022-09-03T23:37:01.465Z,101524.00
2022-09-03T23:39:42.817Z,101526.00
2022-09-03T23:42:35.616Z,101532.00
2022-09-03T23:45:15.627Z,101532.00
2022-09-03T23:47:53.479Z,101533.00
2022-09-03T23:50:28.913Z,101539.00
2022-09-03T23:53:10.757Z,101538.00
2022-09-03T23:56:08.494Z,101537.00
2022-09-03T23:58:56.369Z,101538.00
